sensor_id;sensor_type;location;lat;lon;timestamp;temperature;humidity
21169;DHT22;10742;51.816;8.662;2022-09-23T00:02:05;14.50;76.30
21169;DHT22;10742;51.816;8.662;2022-09-23T00:05:08;14.50;76.50
21169;DHT22;10742;51.816;8.662;2022-09-23T00:08:11;14.40;76.60
21169;DHT22;10742;51.816;8.662;2022-09-23T00:11:16;14.40;76.70
21169;DHT22;10742;51.816;8.662;2022-09-23T00:14:18;14.40;77.10
21169;DHT22;10742;51.816;8.662;2022-09-23T00:17:22;14.30;76.90
21169;DHT22;10742;51.816;8.662;2022-09-23T00:20:25;14.30;77.00
21169;DHT22;10742;51.816;8.662;2022-09-23T00:23:27;14.30;77.10
21169;DHT22;10742;51.816;8.662;2022-09-23T00:26:29;14.20;77.20
21169;DHT22;10742;51.816;8.662;2022-09-23T00:29:32;14.20;77.30
21169;DHT22;10742;51.816;8.662;2022-09-23T00:32:35;14.20;77.50
21169;DHT22;10742;51.816;8.662;2022-09-23T00:35:37;14.10;77.70
21169;DHT22;10742;51.816;8.662;2022-09-23T00:38:40;14.10;77.70
21169;DHT22;10742;51.816;8.662;2022-09-23T00:42:01;14.10;77.80
21169;DHT22;10742;51.816;8.662;2022-09-23T00:45:22;14.00;77.70
21169;DHT22;10742;51.816;8.662;2022-09-23T00:48:44;14.00;77.90
21169;DHT22;10742;51.816;8.662;2022-09-23T00:51:51;14.00;78.00
21169;DHT22;10742;51.816;8.662;2022-09-23T00:54:56;14.00;78.50
21169;DHT22;10742;51.816;8.662;2022-09-23T00:58:02;13.90;78.30
21169;DHT22;10742;51.816;8.662;2022-09-23T01:01:07;13.90;78.40
21169;DHT22;10742;51.816;8.662;2022-09-23T01:04:09;13.90;78.30
21169;DHT22;10742;51.816;8.662;2022-09-23T01:07:11;13.90;78.30
21169;DHT22;10742;51.816;8.662;2022-09-23T01:10:15;13.90;78.40
21169;DHT22;10742;51.816;8.662;2022-09-23T01:16:44;13.80;79.00
21169;DHT22;10742;51.816;8.662;2022-09-23T01:20:44;13.80;79.30
21169;DHT22;10742;51.816;8.662;2022-09-23T01:23:40;13.80;79.30
21169;DHT22;10742;51.816;8.662;2022-09-23T01:30:16;13.70;79.60
21169;DHT22;10742;51.816;8.662;2022-09-23T01:33:27;13.70;79.30
21169;DHT22;10742;51.816;8.662;2022-09-23T01:39:44;13.60;79.60
21169;DHT22;10742;51.816;8.662;2022-09-23T01:43:09;13.60;79.50
21169;DHT22;10742;51.816;8.662;2022-09-23T01:46:25;13.60;80.10
21169;DHT22;10742;51.816;8.662;2022-09-23T01:49:37;13.60;79.70
21169;DHT22;10742;51.816;8.662;2022-09-23T01:52:44;13.50;79.90
21169;DHT22;10742;51.816;8.662;2022-09-23T01:55:51;13.50;79.90
21169;DHT22;10742;51.816;8.662;2022-09-23T02:02:20;13.40;80.00
21169;DHT22;10742;51.816;8.662;2022-09-23T02:05:47;13.40;80.40
21169;DHT22;10742;51.816;8.662;2022-09-23T02:09:01;13.40;80.30
21169;DHT22;10742;51.816;8.662;2022-09-23T02:12:10;13.40;80.60
21169;DHT22;10742;51.816;8.662;2022-09-23T02:15:17;13.40;80.30
21169;DHT22;10742;51.816;8.662;2022-09-23T02:18:31;13.30;80.40
21169;DHT22;10742;51.816;8.662;2022-09-23T02:21:38;13.30;80.90
21169;DHT22;10742;51.816;8.662;2022-09-23T02:24:41;13.30;80.70
21169;DHT22;10742;51.816;8.662;2022-09-23T02:27:55;13.30;80.60
21169;DHT22;10742;51.816;8.662;2022-09-23T02:31:26;13.20;81.10
21169;DHT22;10742;51.816;8.662;2022-09-23T02:35:02;13.20;81.80
21169;DHT22;10742;51.816;8.662;2022-09-23T02:38:16;13.20;81.50
21169;DHT22;10742;51.816;8.662;2022-09-23T02:44:29;13.20;81.50
21169;DHT22;10742;51.816;8.662;2022-09-23T02:47:34;13.20;81.00
21169;DHT22;10742;51.816;8.662;2022-09-23T02:50:40;13.20;81.30
21169;DHT22;10742;51.816;8.662;2022-09-23T02:53:43;13.20;81.30
21169;DHT22;10742;51.816;8.662;2022-09-23T02:56:47;13.20;81.40
21169;DHT22;10742;51.816;8.662;2022-09-23T02:59:50;13.10;81.80
21169;DHT22;10742;51.816;8.662;2022-09-23T03:03:03;13.20;82.40
21169;DHT22;10742;51.816;8.662;2022-09-23T03:06:27;13.20;82.00
21169;DHT22;10742;51.816;8.662;2022-09-23T03:09:39;13.10;82.10
21169;DHT22;10742;51.816;8.662;2022-09-23T03:16:11;13.20;81.80
21169;DHT22;10742;51.816;8.662;2022-09-23T03:19:49;13.20;82.10
21169;DHT22;10742;51.816;8.662;2022-09-23T03:23:14;13.20;82.20
21169;DHT22;10742;51.816;8.662;2022-09-23T03:26:39;13.20;81.70
21169;DHT22;10742;51.816;8.662;2022-09-23T03:30:03;13.10;81.80
21169;DHT22;10742;51.816;8.662;2022-09-23T03:33:25;13.10;81.90
21169;DHT22;10742;51.816;8.662;2022-09-23T03:36:36;13.10;81.90
21169;DHT22;10742;51.816;8.662;2022-09-23T03:43:01;13.10;82.60
21169;DHT22;10742;51.816;8.662;2022-09-23T03:46:06;13.10;82.40
21169;DHT22;10742;51.816;8.662;2022-09-23T03:49:14;13.10;82.50
21169;DHT22;10742;51.816;8.662;2022-09-23T03:52:19;13.20;82.90
21169;DHT22;10742;51.816;8.662;2022-09-23T03:55:21;13.10;82.60
21169;DHT22;10742;51.816;8.662;2022-09-23T03:58:24;13.20;82.60
21169;DHT22;10742;51.816;8.662;2022-09-23T04:01:26;13.10;82.50
21169;DHT22;10742;51.816;8.662;2022-09-23T04:04:28;13.10;82.50
21169;DHT22;10742;51.816;8.662;2022-09-23T04:07:33;13.20;82.70
21169;DHT22;10742;51.816;8.662;2022-09-23T04:10:39;13.10;82.70
21169;DHT22;10742;51.816;8.662;2022-09-23T04:13:42;13.20;83.00
21169;DHT22;10742;51.816;8.662;2022-09-23T04:16:46;13.20;82.80
21169;DHT22;10742;51.816;8.662;2022-09-23T04:19:48;13.10;82.80
21169;DHT22;10742;51.816;8.662;2022-09-23T04:22:51;13.20;82.80
21169;DHT22;10742;51.816;8.662;2022-09-23T04:25:53;13.20;82.80
21169;DHT22;10742;51.816;8.662;2022-09-23T04:28:56;13.10;82.80
21169;DHT22;10742;51.816;8.662;2022-09-23T04:31:59;13.20;83.00
21169;DHT22;10742;51.816;8.662;2022-09-23T04:35:01;13.10;83.00
21169;DHT22;10742;51.816;8.662;2022-09-23T04:38:05;13.20;83.10
21169;DHT22;10742;51.816;8.662;2022-09-23T04:41:08;13.10;83.20
21169;DHT22;10742;51.816;8.662;2022-09-23T04:44:12;13.10;83.10
21169;DHT22;10742;51.816;8.662;2022-09-23T04:47:14;13.10;83.40
21169;DHT22;10742;51.816;8.662;2022-09-23T04:50:17;13.10;83.20
21169;DHT22;10742;51.816;8.662;2022-09-23T04:53:19;13.10;83.30
21169;DHT22;10742;51.816;8.662;2022-09-23T04:56:26;13.10;83.40
21169;DHT22;10742;51.816;8.662;2022-09-23T04:59:28;13.10;83.60
21169;DHT22;10742;51.816;8.662;2022-09-23T05:02:31;13.10;83.50
21169;DHT22;10742;51.816;8.662;2022-09-23T05:05:35;13.10;83.70
21169;DHT22;10742;51.816;8.662;2022-09-23T05:08:37;13.10;83.70
21169;DHT22;10742;51.816;8.662;2022-09-23T05:11:39;13.10;83.80
21169;DHT22;10742;51.816;8.662;2022-09-23T05:15:00;13.10;83.80
21169;DHT22;10742;51.816;8.662;2022-09-23T05:18:22;13.10;83.70
21169;DHT22;10742;51.816;8.662;2022-09-23T05:21:44;13.10;83.70
21169;DHT22;10742;51.816;8.662;2022-09-23T05:25:05;13.10;83.70
21169;DHT22;10742;51.816;8.662;2022-09-23T05:28:27;13.10;84.50
21169;DHT22;10742;51.816;8.662;2022-09-23T05:31:52;13.10;83.90
21169;DHT22;10742;51.816;8.662;2022-09-23T05:34:55;13.10;83.80
21169;DHT22;10742;51.816;8.662;2022-09-23T05:37:57;13.10;83.90
21169;DHT22;10742;51.816;8.662;2022-09-23T05:41:02;13.10;84.30
21169;DHT22;10742;51.816;8.662;2022-09-23T05:44:04;13.10;84.40
21169;DHT22;10742;51.816;8.662;2022-09-23T05:47:07;13.10;84.20
21169;DHT22;10742;51.816;8.662;2022-09-23T05:50:09;13.10;84.20
21169;DHT22;10742;51.816;8.662;2022-09-23T05:53:11;13.10;84.20
21169;DHT22;10742;51.816;8.662;2022-09-23T05:56:16;13.20;84.20
21169;DHT22;10742;51.816;8.662;2022-09-23T05:59:18;13.20;84.30
21169;DHT22;10742;51.816;8.662;2022-09-23T06:02:21;13.20;85.00
21169;DHT22;10742;51.816;8.662;2022-09-23T06:05:23;13.20;84.30
21169;DHT22;10742;51.816;8.662;2022-09-23T06:08:25;13.20;84.20
21169;DHT22;10742;51.816;8.662;2022-09-23T06:11:32;13.20;85.00
21169;DHT22;10742;51.816;8.662;2022-09-23T06:14:35;13.20;84.50
21169;DHT22;10742;51.816;8.662;2022-09-23T06:17:38;13.30;84.30
21169;DHT22;10742;51.816;8.662;2022-09-23T06:20:40;13.30;84.20
21169;DHT22;10742;51.816;8.662;2022-09-23T06:23:43;13.30;85.10
21169;DHT22;10742;51.816;8.662;2022-09-23T06:26:46;13.40;84.50
21169;DHT22;10742;51.816;8.662;2022-09-23T06:29:48;13.40;84.50
21169;DHT22;10742;51.816;8.662;2022-09-23T06:32:55;13.40;84.50
21169;DHT22;10742;51.816;8.662;2022-09-23T06:36:03;13.40;84.50
21169;DHT22;10742;51.816;8.662;2022-09-23T06:39:06;13.40;84.80
21169;DHT22;10742;51.816;8.662;2022-09-23T06:42:08;13.50;84.60
21169;DHT22;10742;51.816;8.662;2022-09-23T06:45:12;13.60;84.90
21169;DHT22;10742;51.816;8.662;2022-09-23T06:48:16;13.60;85.20
21169;DHT22;10742;51.816;8.662;2022-09-23T06:51:18;13.70;85.30
21169;DHT22;10742;51.816;8.662;2022-09-23T06:54:22;13.90;85.60
21169;DHT22;10742;51.816;8.662;2022-09-23T06:57:28;14.00;85.70
21169;DHT22;10742;51.816;8.662;2022-09-23T07:00:30;14.20;86.00
21169;DHT22;10742;51.816;8.662;2022-09-23T07:03:33;14.40;85.90
21169;DHT22;10742;51.816;8.662;2022-09-23T07:06:36;14.60;85.80
21169;DHT22;10742;51.816;8.662;2022-09-23T07:09:38;14.80;85.60
21169;DHT22;10742;51.816;8.662;2022-09-23T07:12:40;15.00;85.20
21169;DHT22;10742;51.816;8.662;2022-09-23T07:15:48;15.20;84.80
21169;DHT22;10742;51.816;8.662;2022-09-23T07:18:51;15.40;84.30
21169;DHT22;10742;51.816;8.662;2022-09-23T07:21:54;15.60;84.00
21169;DHT22;10742;51.816;8.662;2022-09-23T07:24:56;15.80;83.50
21169;DHT22;10742;51.816;8.662;2022-09-23T07:27:59;16.00;83.00
21169;DHT22;10742;51.816;8.662;2022-09-23T07:31:06;16.10;82.60
21169;DHT22;10742;51.816;8.662;2022-09-23T07:34:10;16.20;82.10
21169;DHT22;10742;51.816;8.662;2022-09-23T07:37:14;16.40;82.00
21169;DHT22;10742;51.816;8.662;2022-09-23T07:40:17;16.50;81.60
21169;DHT22;10742;51.816;8.662;2022-09-23T07:43:19;16.70;81.50
21169;DHT22;10742;51.816;8.662;2022-09-23T07:46:22;16.80;81.50
21169;DHT22;10742;51.816;8.662;2022-09-23T07:49:25;17.00;81.10
21169;DHT22;10742;51.816;8.662;2022-09-23T07:52:27;17.10;80.90
21169;DHT22;10742;51.816;8.662;2022-09-23T07:55:30;17.30;80.60
21169;DHT22;10742;51.816;8.662;2022-09-23T07:58:33;17.40;80.40
21169;DHT22;10742;51.816;8.662;2022-09-23T08:01:41;17.60;80.40
21169;DHT22;10742;51.816;8.662;2022-09-23T08:04:43;17.70;80.20
21169;DHT22;10742;51.816;8.662;2022-09-23T08:07:45;17.90;80.30
21169;DHT22;10742;51.816;8.662;2022-09-23T08:10:50;18.20;80.30
21169;DHT22;10742;51.816;8.662;2022-09-23T08:13:53;18.40;79.80
21169;DHT22;10742;51.816;8.662;2022-09-23T08:16:55;18.60;79.30
21169;DHT22;10742;51.816;8.662;2022-09-23T08:19:59;18.80;79.10
21169;DHT22;10742;51.816;8.662;2022-09-23T08:23:01;19.00;79.10
21169;DHT22;10742;51.816;8.662;2022-09-23T08:26:05;19.20;78.80
21169;DHT22;10742;51.816;8.662;2022-09-23T08:29:14;19.40;78.10
21169;DHT22;10742;51.816;8.662;2022-09-23T08:32:17;19.60;77.80
21169;DHT22;10742;51.816;8.662;2022-09-23T08:35:19;19.80;77.20
21169;DHT22;10742;51.816;8.662;2022-09-23T08:38:21;20.00;76.40
21169;DHT22;10742;51.816;8.662;2022-09-23T08:41:45;20.20;76.00
21169;DHT22;10742;51.816;8.662;2022-09-23T08:44:58;20.40;75.00
21169;DHT22;10742;51.816;8.662;2022-09-23T08:48:11;20.60;74.40
21169;DHT22;10742;51.816;8.662;2022-09-23T08:51:19;20.80;74.10
21169;DHT22;10742;51.816;8.662;2022-09-23T08:54:30;20.90;73.70
21169;DHT22;10742;51.816;8.662;2022-09-23T08:57:46;21.10;72.80
21169;DHT22;10742;51.816;8.662;2022-09-23T09:01:18;21.30;71.70
21169;DHT22;10742;51.816;8.662;2022-09-23T09:07:38;21.60;72.10
21169;DHT22;10742;51.816;8.662;2022-09-23T09:10:42;21.70;71.50
21169;DHT22;10742;51.816;8.662;2022-09-23T09:14:03;21.80;70.90
21169;DHT22;10742;51.816;8.662;2022-09-23T09:17:13;22.00;69.50
21169;DHT22;10742;51.816;8.662;2022-09-23T09:20:28;22.10;69.30
21169;DHT22;10742;51.816;8.662;2022-09-23T09:24:07;22.20;70.50
21169;DHT22;10742;51.816;8.662;2022-09-23T09:27:17;22.40;68.50
21169;DHT22;10742;51.816;8.662;2022-09-23T09:30:38;22.50;69.30
21169;DHT22;10742;51.816;8.662;2022-09-23T09:34:23;22.70;68.70
21169;DHT22;10742;51.816;8.662;2022-09-23T09:37:35;22.80;67.80
21169;DHT22;10742;51.816;8.662;2022-09-23T09:40:44;23.00;67.20
21169;DHT22;10742;51.816;8.662;2022-09-23T09:43:48;23.10;66.90
21169;DHT22;10742;51.816;8.662;2022-09-23T09:47:15;23.20;67.10
21169;DHT22;10742;51.816;8.662;2022-09-23T09:53:43;23.50;64.30
21169;DHT22;10742;51.816;8.662;2022-09-23T09:56:45;23.60;65.30
21169;DHT22;10742;51.816;8.662;2022-09-23T09:59:48;23.70;64.80
21169;DHT22;10742;51.816;8.662;2022-09-23T10:02:54;23.70;64.00
21169;DHT22;10742;51.816;8.662;2022-09-23T10:05:57;23.80;63.60
21169;DHT22;10742;51.816;8.662;2022-09-23T10:09:16;23.80;63.40
21169;DHT22;10742;51.816;8.662;2022-09-23T10:12:24;23.80;61.50
21169;DHT22;10742;51.816;8.662;2022-09-23T10:15:29;24.00;62.60
21169;DHT22;10742;51.816;8.662;2022-09-23T10:18:48;24.00;62.70
21169;DHT22;10742;51.816;8.662;2022-09-23T10:22:00;24.10;61.80
21169;DHT22;10742;51.816;8.662;2022-09-23T10:25:21;24.10;62.10
21169;DHT22;10742;51.816;8.662;2022-09-23T10:28:51;24.20;61.70
21169;DHT22;10742;51.816;8.662;2022-09-23T10:32:24;24.20;60.70
21169;DHT22;10742;51.816;8.662;2022-09-23T10:35:26;24.30;59.90
21169;DHT22;10742;51.816;8.662;2022-09-23T10:38:29;24.40;60.40
21169;DHT22;10742;51.816;8.662;2022-09-23T10:41:39;24.50;60.10
21169;DHT22;10742;51.816;8.662;2022-09-23T10:45:18;24.50;59.20
21169;DHT22;10742;51.816;8.662;2022-09-23T10:55:47;24.70;58.40
21169;DHT22;10742;51.816;8.662;2022-09-23T11:02:08;24.80;58.50
21169;DHT22;10742;51.816;8.662;2022-09-23T11:05:32;24.80;57.00
21169;DHT22;10742;51.816;8.662;2022-09-23T11:09:03;24.90;56.60
21169;DHT22;10742;51.816;8.662;2022-09-23T11:15:43;25.00;56.50
21169;DHT22;10742;51.816;8.662;2022-09-23T11:19:20;25.00;56.90
21169;DHT22;10742;51.816;8.662;2022-09-23T11:22:41;25.00;55.70
21169;DHT22;10742;51.816;8.662;2022-09-23T11:33:02;25.10;54.80
21169;DHT22;10742;51.816;8.662;2022-09-23T11:36:20;25.20;54.60
21169;DHT22;10742;51.816;8.662;2022-09-23T11:39:35;25.10;54.60
21169;DHT22;10742;51.816;8.662;2022-09-23T11:43:26;25.00;53.70
21169;DHT22;10742;51.816;8.662;2022-09-23T11:52:44;25.00;53.60
21169;DHT22;10742;51.816;8.662;2022-09-23T11:55:59;25.00;53.60
21169;DHT22;10742;51.816;8.662;2022-09-23T11:59:19;25.00;53.60
21169;DHT22;10742;51.816;8.662;2022-09-23T12:02:50;25.00;53.20
21169;DHT22;10742;51.816;8.662;2022-09-23T12:06:05;25.00;53.30
21169;DHT22;10742;51.816;8.662;2022-09-23T12:09:18;25.00;53.00
21169;DHT22;10742;51.816;8.662;2022-09-23T12:16:01;25.00;52.80
21169;DHT22;10742;51.816;8.662;2022-09-23T12:25:41;25.10;52.90
21169;DHT22;10742;51.816;8.662;2022-09-23T12:29:11;25.10;52.80
21169;DHT22;10742;51.816;8.662;2022-09-23T12:32:33;25.10;52.60
21169;DHT22;10742;51.816;8.662;2022-09-23T12:36:02;25.10;53.00
21169;DHT22;10742;51.816;8.662;2022-09-23T12:39:21;25.10;52.10
21169;DHT22;10742;51.816;8.662;2022-09-23T12:42:25;25.10;52.20
21169;DHT22;10742;51.816;8.662;2022-09-23T12:45:32;25.10;52.70
21169;DHT22;10742;51.816;8.662;2022-09-23T12:48:44;25.10;52.90
21169;DHT22;10742;51.816;8.662;2022-09-23T13:01:43;25.20;51.30
21169;DHT22;10742;51.816;8.662;2022-09-23T13:08:23;25.30;51.30
21169;DHT22;10742;51.816;8.662;2022-09-23T13:11:28;25.30;51.90
21169;DHT22;10742;51.816;8.662;2022-09-23T13:14:31;25.30;51.70
21169;DHT22;10742;51.816;8.662;2022-09-23T13:17:38;25.30;51.80
21169;DHT22;10742;51.816;8.662;2022-09-23T13:20:42;25.30;51.20
21169;DHT22;10742;51.816;8.662;2022-09-23T13:27:30;25.30;51.00
21169;DHT22;10742;51.816;8.662;2022-09-23T13:30:47;25.40;51.40
21169;DHT22;10742;51.816;8.662;2022-09-23T13:34:02;25.40;50.90
21169;DHT22;10742;51.816;8.662;2022-09-23T13:37:20;25.40;50.40
21169;DHT22;10742;51.816;8.662;2022-09-23T13:40:26;25.40;51.90
21169;DHT22;10742;51.816;8.662;2022-09-23T13:43:39;25.40;51.20
21169;DHT22;10742;51.816;8.662;2022-09-23T13:46:54;25.40;51.50
21169;DHT22;10742;51.816;8.662;2022-09-23T13:49:58;25.40;51.00
21169;DHT22;10742;51.816;8.662;2022-09-23T13:53:10;25.40;51.30
21169;DHT22;10742;51.816;8.662;2022-09-23T13:56:17;25.50;51.30
21169;DHT22;10742;51.816;8.662;2022-09-23T13:59:36;25.50;51.30
21169;DHT22;10742;51.816;8.662;2022-09-23T14:02:43;25.50;51.30
21169;DHT22;10742;51.816;8.662;2022-09-23T14:05:46;25.50;51.10
21169;DHT22;10742;51.816;8.662;2022-09-23T14:08:51;25.50;51.00
21169;DHT22;10742;51.816;8.662;2022-09-23T14:11:58;25.50;50.20
21169;DHT22;10742;51.816;8.662;2022-09-23T14:15:01;25.50;51.00
21169;DHT22;10742;51.816;8.662;2022-09-23T14:18:05;25.50;50.90
21169;DHT22;10742;51.816;8.662;2022-09-23T14:21:34;25.50;50.80
21169;DHT22;10742;51.816;8.662;2022-09-23T14:24:37;25.50;50.30
21169;DHT22;10742;51.816;8.662;2022-09-23T14:27:40;25.50;50.40
21169;DHT22;10742;51.816;8.662;2022-09-23T14:30:44;25.50;50.00
21169;DHT22;10742;51.816;8.662;2022-09-23T14:33:47;25.40;50.20
21169;DHT22;10742;51.816;8.662;2022-09-23T14:36:49;25.40;50.10
21169;DHT22;10742;51.816;8.662;2022-09-23T14:40:19;25.30;50.10
21169;DHT22;10742;51.816;8.662;2022-09-23T14:43:27;25.20;50.40
21169;DHT22;10742;51.816;8.662;2022-09-23T14:46:31;25.20;50.40
21169;DHT22;10742;51.816;8.662;2022-09-23T14:49:35;25.10;50.50
21169;DHT22;10742;51.816;8.662;2022-09-23T14:52:47;25.10;50.30
21169;DHT22;10742;51.816;8.662;2022-09-23T14:55:55;25.00;49.70
21169;DHT22;10742;51.816;8.662;2022-09-23T14:59:27;25.00;50.00
21169;DHT22;10742;51.816;8.662;2022-09-23T15:02:30;24.90;49.80
21169;DHT22;10742;51.816;8.662;2022-09-23T15:05:44;24.90;50.10
21169;DHT22;10742;51.816;8.662;2022-09-23T15:08:53;24.70;49.80
21169;DHT22;10742;51.816;8.662;2022-09-23T15:11:59;24.70;50.70
21169;DHT22;10742;51.816;8.662;2022-09-23T15:15:01;24.60;50.10
21169;DHT22;10742;51.816;8.662;2022-09-23T15:18:06;24.50;50.70
21169;DHT22;10742;51.816;8.662;2022-09-23T15:21:17;24.40;50.60
21169;DHT22;10742;51.816;8.662;2022-09-23T15:24:39;24.30;50.40
21169;DHT22;10742;51.816;8.662;2022-09-23T15:28:00;24.30;51.40
21169;DHT22;10742;51.816;8.662;2022-09-23T15:31:04;24.20;50.60
21169;DHT22;10742;51.816;8.662;2022-09-23T15:34:10;24.10;51.30
21169;DHT22;10742;51.816;8.662;2022-09-23T15:37:13;24.10;51.80
21169;DHT22;10742;51.816;8.662;2022-09-23T15:40:19;24.10;51.70
21169;DHT22;10742;51.816;8.662;2022-09-23T15:43:23;24.00;51.60
21169;DHT22;10742;51.816;8.662;2022-09-23T15:46:28;24.00;51.90
21169;DHT22;10742;51.816;8.662;2022-09-23T15:49:36;23.90;51.90
21169;DHT22;10742;51.816;8.662;2022-09-23T15:52:40;23.80;52.60
21169;DHT22;10742;51.816;8.662;2022-09-23T15:55:46;23.70;52.00
21169;DHT22;10742;51.816;8.662;2022-09-23T15:58:49;23.70;52.20
21169;DHT22;10742;51.816;8.662;2022-09-23T16:01:51;23.50;52.30
21169;DHT22;10742;51.816;8.662;2022-09-23T16:04:55;23.50;52.40
21169;DHT22;10742;51.816;8.662;2022-09-23T16:07:58;23.40;52.60
21169;DHT22;10742;51.816;8.662;2022-09-23T16:11:04;23.30;52.50
21169;DHT22;10742;51.816;8.662;2022-09-23T16:14:14;23.30;52.80
21169;DHT22;10742;51.816;8.662;2022-09-23T16:17:17;23.30;52.90
21169;DHT22;10742;51.816;8.662;2022-09-23T16:20:20;23.20;53.30
21169;DHT22;10742;51.816;8.662;2022-09-23T16:23:24;23.20;53.60
21169;DHT22;10742;51.816;8.662;2022-09-23T16:26:40;23.20;54.10
21169;DHT22;10742;51.816;8.662;2022-09-23T16:29:46;23.10;55.20
21169;DHT22;10742;51.816;8.662;2022-09-23T16:32:48;23.10;55.20
21169;DHT22;10742;51.816;8.662;2022-09-23T16:35:52;23.10;55.50
21169;DHT22;10742;51.816;8.662;2022-09-23T16:38:56;23.20;55.50
21169;DHT22;10742;51.816;8.662;2022-09-23T16:41:58;23.10;55.80
21169;DHT22;10742;51.816;8.662;2022-09-23T16:45:01;23.10;56.90
21169;DHT22;10742;51.816;8.662;2022-09-23T16:48:04;23.10;56.40
21169;DHT22;10742;51.816;8.662;2022-09-23T16:51:08;23.10;55.80
21169;DHT22;10742;51.816;8.662;2022-09-23T16:54:14;23.10;56.60
21169;DHT22;10742;51.816;8.662;2022-09-23T16:57:18;23.10;56.40
21169;DHT22;10742;51.816;8.662;2022-09-23T17:00:21;23.10;55.90
21169;DHT22;10742;51.816;8.662;2022-09-23T17:03:42;23.00;56.40
21169;DHT22;10742;51.816;8.662;2022-09-23T17:06:50;23.00;56.80
21169;DHT22;10742;51.816;8.662;2022-09-23T17:09:52;22.90;56.90
21169;DHT22;10742;51.816;8.662;2022-09-23T17:12:55;22.80;56.90
21169;DHT22;10742;51.816;8.662;2022-09-23T17:15:59;22.80;57.20
21169;DHT22;10742;51.816;8.662;2022-09-23T17:19:09;22.70;57.40
21169;DHT22;10742;51.816;8.662;2022-09-23T17:22:12;22.70;58.10
21169;DHT22;10742;51.816;8.662;2022-09-23T17:25:15;22.60;57.90
21169;DHT22;10742;51.816;8.662;2022-09-23T17:28:17;22.60;58.30
21169;DHT22;10742;51.816;8.662;2022-09-23T17:31:20;22.50;58.60
21169;DHT22;10742;51.816;8.662;2022-09-23T17:34:23;22.50;59.10
21169;DHT22;10742;51.816;8.662;2022-09-23T17:37:26;22.40;59.40
21169;DHT22;10742;51.816;8.662;2022-09-23T17:40:30;22.30;59.90
21169;DHT22;10742;51.816;8.662;2022-09-23T17:43:33;22.30;60.50
21169;DHT22;10742;51.816;8.662;2022-09-23T17:46:35;22.20;60.60
21169;DHT22;10742;51.816;8.662;2022-09-23T17:49:37;22.10;60.90
21169;DHT22;10742;51.816;8.662;2022-09-23T17:52:40;22.10;61.20
21169;DHT22;10742;51.816;8.662;2022-09-23T17:55:42;22.00;61.50
21169;DHT22;10742;51.816;8.662;2022-09-23T17:58:46;21.90;61.80
21169;DHT22;10742;51.816;8.662;2022-09-23T18:01:51;21.80;62.10
21169;DHT22;10742;51.816;8.662;2022-09-23T18:04:53;21.80;62.40
21169;DHT22;10742;51.816;8.662;2022-09-23T18:07:55;21.80;62.40
21169;DHT22;10742;51.816;8.662;2022-09-23T18:10:58;21.70;62.50
21169;DHT22;10742;51.816;8.662;2022-09-23T18:17:04;21.60;63.30
21169;DHT22;10742;51.816;8.662;2022-09-23T18:20:07;21.60;63.30
21169;DHT22;10742;51.816;8.662;2022-09-23T18:23:09;21.50;63.60
21169;DHT22;10742;51.816;8.662;2022-09-23T18:26:22;21.50;63.90
21169;DHT22;10742;51.816;8.662;2022-09-23T18:29:25;21.40;64.50
21169;DHT22;10742;51.816;8.662;2022-09-23T18:32:27;21.40;64.60
21169;DHT22;10742;51.816;8.662;2022-09-23T18:35:29;21.40;65.10
21169;DHT22;10742;51.816;8.662;2022-09-23T18:38:52;21.30;65.20
21169;DHT22;10742;51.816;8.662;2022-09-23T18:42:13;21.20;65.20
21169;DHT22;10742;51.816;8.662;2022-09-23T18:45:34;21.20;65.70
21169;DHT22;10742;51.816;8.662;2022-09-23T18:48:37;21.10;65.80
21169;DHT22;10742;51.816;8.662;2022-09-23T18:51:57;21.10;66.30
21169;DHT22;10742;51.816;8.662;2022-09-23T18:55:00;21.10;66.30
21169;DHT22;10742;51.816;8.662;2022-09-23T18:58:02;21.00;66.30
21169;DHT22;10742;51.816;8.662;2022-09-23T19:01:08;21.00;66.40
21169;DHT22;10742;51.816;8.662;2022-09-23T19:04:12;20.90;66.50
21169;DHT22;10742;51.816;8.662;2022-09-23T19:07:15;20.90;66.60
21169;DHT22;10742;51.816;8.662;2022-09-23T19:10:18;20.80;66.80
21169;DHT22;10742;51.816;8.662;2022-09-23T19:13:20;20.80;67.00
21169;DHT22;10742;51.816;8.662;2022-09-23T19:16:24;20.70;67.20
21169;DHT22;10742;51.816;8.662;2022-09-23T19:19:27;20.70;67.20
21169;DHT22;10742;51.816;8.662;2022-09-23T19:22:30;20.60;67.50
21169;DHT22;10742;51.816;8.662;2022-09-23T19:25:35;20.60;67.90
21169;DHT22;10742;51.816;8.662;2022-09-23T19:28:38;20.60;68.50
21169;DHT22;10742;51.816;8.662;2022-09-23T19:31:41;20.50;68.70
21169;DHT22;10742;51.816;8.662;2022-09-23T19:34:44;20.50;69.00
21169;DHT22;10742;51.816;8.662;2022-09-23T19:37:47;20.40;69.40
21169;DHT22;10742;51.816;8.662;2022-09-23T19:40:51;20.40;69.90
21169;DHT22;10742;51.816;8.662;2022-09-23T19:43:54;20.30;70.20
21169;DHT22;10742;51.816;8.662;2022-09-23T19:46:58;20.30;70.50
21169;DHT22;10742;51.816;8.662;2022-09-23T19:50:01;20.30;70.90
21169;DHT22;10742;51.816;8.662;2022-09-23T19:53:07;20.20;71.10
21169;DHT22;10742;51.816;8.662;2022-09-23T19:56:11;20.20;71.80
21169;DHT22;10742;51.816;8.662;2022-09-23T19:59:17;20.20;71.70
21169;DHT22;10742;51.816;8.662;2022-09-23T20:02:20;20.20;71.80
21169;DHT22;10742;51.816;8.662;2022-09-23T20:05:25;20.10;72.00
21169;DHT22;10742;51.816;8.662;2022-09-23T20:08:29;20.10;72.20
21169;DHT22;10742;51.816;8.662;2022-09-23T20:11:32;20.00;72.40
21169;DHT22;10742;51.816;8.662;2022-09-23T20:14:35;20.00;72.70
21169;DHT22;10742;51.816;8.662;2022-09-23T20:17:39;20.00;73.10
21169;DHT22;10742;51.816;8.662;2022-09-23T20:20:42;19.90;73.30
21169;DHT22;10742;51.816;8.662;2022-09-23T20:23:46;19.90;73.70
21169;DHT22;10742;51.816;8.662;2022-09-23T20:26:50;19.90;74.30
21169;DHT22;10742;51.816;8.662;2022-09-23T20:30:11;19.90;74.60
21169;DHT22;10742;51.816;8.662;2022-09-23T20:33:14;19.90;74.60
21169;DHT22;10742;51.816;8.662;2022-09-23T20:36:16;19.80;74.70
21169;DHT22;10742;51.816;8.662;2022-09-23T20:39:19;19.80;75.00
21169;DHT22;10742;51.816;8.662;2022-09-23T20:42:22;19.80;75.50
21169;DHT22;10742;51.816;8.662;2022-09-23T20:45:24;19.80;76.20
21169;DHT22;10742;51.816;8.662;2022-09-23T20:48:28;19.80;76.90
21169;DHT22;10742;51.816;8.662;2022-09-23T20:51:31;19.70;77.40
21169;DHT22;10742;51.816;8.662;2022-09-23T20:54:36;19.70;77.50
21169;DHT22;10742;51.816;8.662;2022-09-23T20:57:41;19.70;77.90
21169;DHT22;10742;51.816;8.662;2022-09-23T21:00:46;19.70;78.10
21169;DHT22;10742;51.816;8.662;2022-09-23T21:03:49;19.70;78.10
21169;DHT22;10742;51.816;8.662;2022-09-23T21:06:54;19.60;78.40
21169;DHT22;10742;51.816;8.662;2022-09-23T21:09:59;19.60;78.70
21169;DHT22;10742;51.816;8.662;2022-09-23T21:13:05;19.50;78.70
21169;DHT22;10742;51.816;8.662;2022-09-23T21:16:11;19.50;79.00